Time;durP1;ratioP1;P1;durP2;ratioP2;P2;SDS_P1;SDS_P2;PMS_P1;PMS_P2;Temp;Humidity;BMP_temperature;BMP_pressure;BME280_temperature;BME280_humidity;BME280_pressure;Samples;Min_cycle;Max_cycle;Signal;HPM_P1;HPM_P2
2022/04/27 00:01:13;;;;;;;10.88;5.00;;;;;;;6.14;78.46;102267.84;5107469;28;20035;-71
2022/04/27 00:03:38;;;;;;;11.60;5.03;;;;;;;6.10;79.12;102272.56;5108753;28;20043;-71
2022/04/27 00:06:04;;;;;;;11.98;6.05;;;;;;;6.07;79.22;102271.97;5090489;28;20450;-71
2022/04/27 00:08:29;;;;;;;11.95;6.40;;;;;;;6.03;79.21;102266.13;5089861;28;20050;-71
2022/04/27 00:10:55;;;;;;;12.02;5.93;;;;;;;6.00;79.18;102270.81;5089440;28;20140;-71
2022/04/27 00:13:20;;;;;;;15.05;6.57;;;;;;;5.92;79.87;102260.84;5089762;28;20107;-71
2022/04/27 00:15:45;;;;;;;11.88;6.25;;;;;;;5.84;80.23;102266.81;5088451;28;20055;-71
2022/04/27 00:18:11;;;;;;;13.48;5.88;;;;;;;5.72;80.18;102260.75;5089621;28;20470;-71
2022/04/27 00:20:36;;;;;;;14.15;6.47;;;;;;;5.69;80.50;102262.81;5089653;28;20188;-71
2022/04/27 00:23:01;;;;;;;13.60;6.30;;;;;;;5.64;80.42;102268.50;5089556;28;20040;-71
2022/04/27 00:25:28;;;;;;;13.95;5.63;;;;;;;5.62;80.85;102262.50;5100385;28;20653;-71
2022/04/27 00:27:53;;;;;;;10.63;5.90;;;;;;;5.57;81.17;102258.56;5108758;28;20031;-71
2022/04/27 00:30:19;;;;;;;14.13;6.85;;;;;;;5.61;80.88;102254.69;5100493;28;20088;-71
2022/04/27 00:32:44;;;;;;;11.13;5.85;;;;;;;5.58;80.86;102254.94;5089608;28;20047;-71
2022/04/27 00:35:10;;;;;;;13.70;6.78;;;;;;;5.57;81.52;102263.84;5089554;28;20020;-71
2022/04/27 00:37:35;;;;;;;17.85;6.53;;;;;;;5.51;81.61;102256.44;5089477;28;20028;-71
2022/04/27 00:40:01;;;;;;;14.40;5.72;;;;;;;5.53;81.55;102259.78;5089026;28;20184;-71
2022/04/27 00:42:26;;;;;;;14.07;6.75;;;;;;;5.50;81.80;102263.50;5089039;28;20078;-71
2022/04/27 00:44:52;;;;;;;11.73;6.38;;;;;;;5.44;81.48;102261.38;5098565;28;20036;-71
2022/04/27 00:47:18;;;;;;;11.98;5.78;;;;;;;5.38;81.81;102264.56;5108991;28;20024;-71
2022/04/27 00:49:48;;;;;;;14.68;6.30;;;;;;;5.30;82.53;102265.19;5108522;28;20096;-71
2022/04/27 00:52:15;;;;;;;14.35;6.45;;;;;;;5.24;82.10;102260.41;5108812;28;20035;-71
2022/04/27 00:54:41;;;;;;;13.55;6.60;;;;;;;5.18;82.42;102266.19;5098552;28;20162;-71
2022/04/27 00:57:08;;;;;;;12.35;6.03;;;;;;;5.07;82.33;102267.06;5088012;28;20050;-71
2022/04/27 00:59:34;;;;;;;10.48;6.25;;;;;;;5.00;82.87;102272.03;5087598;28;20377;-71
2022/04/27 01:02:00;;;;;;;12.60;6.40;;;;;;;4.96;82.86;102270.59;5108434;28;20032;-71
2022/04/27 01:04:26;;;;;;;12.65;6.03;;;;;;;4.89;82.84;102265.94;5108332;28;20036;-71
2022/04/27 01:06:51;;;;;;;11.02;6.00;;;;;;;4.83;83.28;102273.41;5102801;28;20032;-71
2022/04/27 01:09:18;;;;;;;11.75;5.57;;;;;;;4.79;83.13;102271.97;5088883;28;20035;-71
2022/04/27 01:11:44;;;;;;;15.43;6.80;;;;;;;4.74;83.57;102271.50;5088731;28;20036;-71
2022/04/27 01:14:09;;;;;;;13.75;6.90;;;;;;;4.55;84.01;102252.78;5109689;28;20080;-71
2022/04/27 01:16:35;;;;;;;13.57;6.00;;;;;;;4.62;84.05;102272.47;5110838;28;20035;-71
2022/04/27 01:19:00;;;;;;;13.93;6.63;;;;;;;4.52;84.49;102267.09;5112033;28;20169;-71
2022/04/27 01:21:26;;;;;;;12.45;6.68;;;;;;;4.54;84.14;102274.91;5103827;28;20475;-71
2022/04/27 01:23:52;;;;;;;21.17;10.18;;;;;;;4.56;85.17;102283.56;5092473;28;20032;-71
2022/04/27 01:26:18;;;;;;;16.05;7.25;;;;;;;4.57;85.08;102288.69;5092374;28;20383;-71
2022/04/27 01:28:45;;;;;;;12.77;6.88;;;;;;;4.60;85.51;102292.91;5111995;28;20016;-71
2022/04/27 01:31:11;;;;;;;17.05;6.97;;;;;;;4.58;85.49;102287.75;5110690;28;20122;-71
2022/04/27 01:33:37;;;;;;;18.20;8.55;;;;;;;4.57;85.27;102288.69;5106946;28;20024;-71
2022/04/27 01:36:05;;;;;;;17.02;7.30;;;;;;;4.64;85.25;102288.19;5108277;28;20031;-71
2022/04/27 01:38:38;;;;;;;15.80;6.95;;;;;;;4.64;85.48;102301.41;5111623;28;20035;-71
2022/04/27 01:41:04;;;;;;;15.02;6.70;;;;;;;4.60;85.50;102287.59;5102049;28;20126;-71
2022/04/27 01:43:29;;;;;;;12.95;6.32;;;;;;;4.57;85.71;102290.50;5111717;28;20145;-71
2022/04/27 01:45:56;;;;;;;19.20;7.18;;;;;;;4.60;85.34;102295.53;5111674;28;20031;-71
2022/04/27 01:48:22;;;;;;;14.20;7.80;;;;;;;4.60;85.30;102299.00;5101585;28;20103;-72
2022/04/27 01:50:47;;;;;;;14.10;6.22;;;;;;;4.56;85.58;102294.94;5099491;28;20051;-71
2022/04/27 01:55:57;;;;;;;12.63;6.28;;;;;;;4.52;85.76;102301.44;5111474;28;20087;-71
2022/04/27 01:58:22;;;;;;;17.30;7.80;;;;;;;4.48;85.94;102300.00;5111369;27;20386;-71
2022/04/27 02:00:48;;;;;;;16.02;6.97;;;;;;;4.46;86.09;102301.91;5112184;28;20111;-71
2022/04/27 02:03:15;;;;;;;16.20;7.18;;;;;;;4.51;86.51;102307.69;5112937;28;20042;-71
2022/04/27 02:05:41;;;;;;;15.60;6.82;;;;;;;4.50;86.42;102305.97;5112147;28;20152;-71
2022/04/27 02:08:07;;;;;;;15.68;7.82;;;;;;;4.45;86.63;102304.66;5110045;28;20440;-71
2022/04/27 02:10:34;;;;;;;15.45;8.13;;;;;;;4.45;87.00;102296.75;5100554;27;20024;-71
2022/04/27 02:13:00;;;;;;;16.67;8.13;;;;;;;4.41;86.56;102308.53;5111145;28;20028;-71
2022/04/27 02:15:27;;;;;;;16.33;8.63;;;;;;;4.39;86.70;102306.00;5091239;28;20035;-71
2022/04/27 02:17:53;;;;;;;19.70;8.35;;;;;;;4.24;86.50;102297.47;5091330;28;20024;-71
2022/04/27 02:20:18;;;;;;;17.17;7.82;;;;;;;4.26;86.33;102314.03;5091188;28;20373;-71
2022/04/27 02:22:45;;;;;;;15.38;8.80;;;;;;;4.19;86.47;102310.19;5091346;28;20040;-71
2022/04/27 02:25:10;;;;;;;16.85;8.70;;;;;;;4.13;86.20;102315.94;5110246;28;20477;-71
2022/04/27 02:27:35;;;;;;;17.38;7.55;;;;;;;4.06;86.23;102309.44;5110551;28;20106;-71
2022/04/27 02:30:03;;;;;;;17.33;8.52;;;;;;;4.02;86.71;102316.78;5110309;28;20556;-71
2022/04/27 02:32:28;;;;;;;17.02;7.72;;;;;;;4.07;87.36;102332.28;5110497;28;20028;-71
2022/04/27 02:34:53;;;;;;;16.55;8.40;;;;;;;4.04;87.70;102327.22;5110335;28;20034;-71
2022/04/27 02:37:19;;;;;;;15.73;7.78;;;;;;;4.06;87.51;102326.16;5109268;28;20098;-71
2022/04/27 02:39:45;;;;;;;16.63;8.35;;;;;;;4.03;87.17;102329.00;5104411;28;20031;-71
2022/04/27 02:42:10;;;;;;;19.40;8.35;;;;;;;3.98;87.40;102335.59;5090856;28;20058;-71
2022/04/27 02:44:36;;;;;;;17.60;8.73;;;;;;;3.91;87.97;102333.44;5091099;28;20024;-71
2022/04/27 02:47:01;;;;;;;19.05;7.80;;;;;;;3.88;88.44;102323.13;5098518;28;20058;-71
2022/04/27 02:52:10;;;;;;;18.70;8.85;;;;;;;3.81;88.83;102321.06;5110557;28;20061;-71
2022/04/27 02:54:36;;;;;;;25.85;9.07;;;;;;;3.78;89.38;102313.38;5110350;28;20546;-71
2022/04/27 02:57:01;;;;;;;20.52;12.05;;;;;;;3.87;89.49;102325.84;5110448;28;20448;-71
2022/04/27 02:59:26;;;;;;;19.45;10.30;;;;;;;3.88;89.37;102331.03;5110257;28;20383;-71
2022/04/27 03:01:52;;;;;;;21.00;9.60;;;;;;;3.89;89.06;102332.69;5110159;28;20070;-71
2022/04/27 03:04:17;;;;;;;20.05;9.52;;;;;;;3.90;89.24;102331.75;5106396;28;20060;-71
2022/04/27 03:06:42;;;;;;;23.85;10.95;;;;;;;3.90;89.32;102333.53;5089070;28;20368;-71
2022/04/27 03:09:08;;;;;;;18.48;9.45;;;;;;;3.81;89.67;102326.31;5105608;28;20020;-71
2022/04/27 03:11:33;;;;;;;19.80;7.85;;;;;;;3.79;89.38;102323.78;5100241;28;20028;-71
2022/04/27 03:13:59;;;;;;;19.75;9.10;;;;;;;3.82;89.56;102326.19;5096709;28;20059;-71
2022/04/27 03:16:24;;;;;;;18.27;9.40;;;;;;;3.74;89.73;102321.50;5090189;28;20028;-71
2022/04/27 03:18:50;;;;;;;19.05;9.50;;;;;;;3.77;90.00;102327.50;5089692;28;20071;-71
2022/04/27 03:21:15;;;;;;;18.52;9.50;;;;;;;3.79;89.72;102342.25;5089941;28;20036;-71
2022/04/27 03:23:41;;;;;;;21.08;9.15;;;;;;;3.77;90.00;102343.34;5090260;28;20036;-71
2022/04/27 03:26:06;;;;;;;19.85;9.65;;;;;;;3.72;90.27;102344.53;5089787;28;20034;-71
2022/04/27 03:28:31;;;;;;;18.83;9.43;;;;;;;3.68;89.98;102339.59;5090173;28;20032;-71
2022/04/27 03:30:57;;;;;;;20.45;10.35;;;;;;;3.60;89.85;102342.81;5090259;28;20059;-71
2022/04/27 03:33:22;;;;;;;20.70;9.50;;;;;;;3.59;89.81;102346.41;5089706;28;20045;-71
2022/04/27 03:35:48;;;;;;;21.15;9.35;;;;;;;3.55;89.82;102339.66;5090054;28;20421;-71
2022/04/27 03:38:18;;;;;;;19.42;9.80;;;;;;;3.51;90.36;102339.06;5089626;28;20081;-71
2022/04/27 03:40:46;;;;;;;22.77;9.13;;;;;;;3.55;90.47;102344.94;5102243;28;20058;-71
2022/04/27 03:43:11;;;;;;;20.42;9.73;;;;;;;3.56;90.93;102343.97;5109253;28;20031;-71
2022/04/27 03:45:37;;;;;;;19.08;8.70;;;;;;;3.51;90.58;102341.69;5109067;28;20471;-71
2022/04/27 03:48:02;;;;;;;18.17;8.98;;;;;;;3.55;90.92;102352.84;5109226;28;20027;-71
2022/04/27 03:50:28;;;;;;;20.77;10.05;;;;;;;3.55;90.93;102358.13;5109312;28;20410;-71
2022/04/27 03:52:53;;;;;;;20.73;10.02;;;;;;;3.54;90.78;102360.88;5109375;28;20043;-71
2022/04/27 03:55:19;;;;;;;20.08;9.63;;;;;;;3.51;90.77;102359.28;5109155;28;20042;-71
2022/04/27 03:57:45;;;;;;;23.40;10.73;;;;;;;3.46;90.82;102362.31;5110965;28;20058;-71
2022/04/27 04:00:11;;;;;;;20.27;10.20;;;;;;;3.41;90.16;102361.78;5109992;28;20101;-71
2022/04/27 04:02:37;;;;;;;21.83;10.77;;;;;;;3.36;89.99;102360.44;5091222;28;20089;-71
2022/04/27 04:05:03;;;;;;;20.00;10.45;;;;;;;3.31;89.81;102365.22;5089483;28;20020;-71
2022/04/27 04:07:29;;;;;;;22.50;9.98;;;;;;;3.29;90.05;102367.94;5097400;28;20452;-71
2022/04/27 04:09:54;;;;;;;19.63;10.63;;;;;;;3.22;89.87;102372.84;5109211;28;20020;-71
2022/04/27 04:12:19;;;;;;;20.80;10.90;;;;;;;3.19;90.19;102374.84;5109083;28;20032;-71
2022/04/27 04:14:45;;;;;;;18.33;9.15;;;;;;;3.16;89.92;102375.91;5109349;28;20493;-71
2022/04/27 04:17:10;;;;;;;22.40;9.10;;;;;;;3.11;89.67;102378.03;5109051;28;20035;-71
2022/04/27 04:19:35;;;;;;;21.67;10.40;;;;;;;3.08;89.63;102381.72;5107605;28;20023;-71
2022/04/27 04:22:01;;;;;;;21.65;10.82;;;;;;;2.95;89.72;102359.84;5109024;28;20199;-71
2022/04/27 04:24:26;;;;;;;20.70;9.98;;;;;;;3.00;90.25;102375.31;5106335;28;20128;-71
2022/04/27 04:29:37;;;;;;;21.80;11.35;;;;;;;2.99;90.10;102387.66;5109091;28;20509;-71
2022/04/27 04:32:02;;;;;;;19.88;10.30;;;;;;;3.00;90.36;102383.22;5109006;28;20027;-71
2022/04/27 04:34:28;;;;;;;23.33;10.32;;;;;;;3.00;90.31;102389.34;5101280;28;20444;-71
2022/04/27 04:36:53;;;;;;;19.90;10.57;;;;;;;2.97;90.38;102383.47;5108031;28;20051;-71
2022/04/27 04:39:19;;;;;;;21.15;10.30;;;;;;;3.00;90.44;102393.78;5107328;28;20036;-71
2022/04/27 04:41:44;;;;;;;20.05;9.05;;;;;;;3.01;90.79;102404.22;5108762;28;20039;-71
2022/04/27 04:44:10;;;;;;;21.55;11.02;;;;;;;3.01;90.56;102404.22;5108557;28;20501;-71
2022/04/27 04:46:35;;;;;;;19.38;9.75;;;;;;;3.02;90.90;102407.69;5108667;28;20473;-71
2022/04/27 04:49:01;;;;;;;19.80;10.75;;;;;;;3.06;90.98;102406.50;5111586;28;20032;-71
2022/04/27 04:51:26;;;;;;;23.20;11.55;;;;;;;3.12;91.01;102414.00;5098050;28;20044;-71
2022/04/27 04:53:51;;;;;;;20.20;10.27;;;;;;;3.18;91.02;102415.34;5091794;28;20039;-71
2022/04/27 04:56:17;;;;;;;19.88;9.48;;;;;;;3.21;90.88;102418.59;5092980;28;20441;-71
2022/04/27 04:58:42;;;;;;;19.08;10.48;;;;;;;3.42;90.95;102418.00;5091378;28;20468;-71
2022/04/27 05:01:07;;;;;;;18.83;9.43;;;;;;;3.75;89.72;102417.34;5092986;28;20028;-71
2022/04/27 05:03:36;;;;;;;20.02;10.13;;;;;;;3.97;88.76;102424.50;5092976;28;20070;-71
2022/04/27 05:06:03;;;;;;;19.38;10.35;;;;;;;4.17;88.03;102429.13;5093007;28;20027;-71
2022/04/27 05:08:28;;;;;;;18.60;10.55;;;;;;;4.38;86.78;102412.63;5112032;28;20035;-71
2022/04/27 05:10:54;;;;;;;20.25;10.05;;;;;;;4.45;86.45;102420.91;5112298;28;20035;-71
2022/04/27 05:13:19;;;;;;;20.00;9.35;;;;;;;4.54;86.98;102425.50;5112019;27;20059;-71
2022/04/27 05:15:45;;;;;;;20.55;10.60;;;;;;;4.96;86.97;102420.47;5112316;28;20035;-71
2022/04/27 05:18:10;;;;;;;23.20;11.70;;;;;;;5.72;85.39;102426.69;5093870;28;20032;-71
2022/04/27 05:20:38;;;;;;;20.27;11.00;;;;;;;6.17;82.85;102433.63;5110695;28;20032;-71
2022/04/27 05:23:03;;;;;;;18.73;10.27;;;;;;;6.22;82.57;102431.44;5112121;28;20027;-71
2022/04/27 05:25:29;;;;;;;19.75;11.23;;;;;;;6.30;81.65;102426.31;5112121;28;20107;-71
2022/04/27 05:27:54;;;;;;;18.00;9.63;;;;;;;6.53;81.40;102438.47;5110431;28;20032;-71
2022/04/27 05:33:03;;;;;;;19.00;10.07;;;;;;;7.35;78.62;102434.03;5112323;28;20050;-71
2022/04/27 05:35:29;;;;;;;21.48;10.52;;;;;;;7.92;75.93;102443.03;5108505;28;20036;-71
2022/04/27 05:37:54;;;;;;;20.42;10.70;;;;;;;7.93;75.85;102446.53;5092413;28;20028;-71
2022/04/27 05:40:20;;;;;;;20.70;10.27;;;;;;;7.79;75.56;102451.28;5091951;28;20071;-71
2022/04/27 05:42:48;;;;;;;18.05;9.43;;;;;;;7.53;76.38;102450.13;5090816;28;20047;-71
2022/04/27 05:45:14;;;;;;;23.02;10.68;;;;;;;7.40;77.19;102451.22;5111736;28;20034;-71
2022/04/27 05:47:40;;;;;;;21.77;10.30;;;;;;;7.25;78.19;102452.56;5111681;28;20066;-71
2022/04/27 05:50:05;;;;;;;22.45;10.73;;;;;;;7.22;79.13;102452.84;5111457;28;20087;-71
2022/04/27 05:52:52;;;;;;;23.20;11.25;;;;;;;7.11;78.66;102450.31;5111525;28;20023;-72
2022/04/27 05:55:19;;;;;;;18.55;9.93;;;;;;;6.98;79.71;102472.59;5092407;28;20027;-71
2022/04/27 05:57:44;;;;;;;19.45;9.95;;;;;;;6.90;80.10;102468.94;5103341;28;20467;-70
2022/04/27 06:00:11;;;;;;;23.08;10.45;;;;;;;6.94;80.50;102471.19;5109288;28;20024;-72
2022/04/27 06:02:36;;;;;;;18.33;9.27;;;;;;;7.03;80.16;102462.41;5110033;28;20063;-72
2022/04/27 06:05:01;;;;;;;18.90;10.02;;;;;;;7.03;79.68;102473.03;5111271;28;20112;-72
2022/04/27 06:07:27;;;;;;;19.65;10.05;;;;;;;7.01;80.78;102474.13;5109971;28;20027;-72
2022/04/27 06:09:52;;;;;;;22.80;10.35;;;;;;;7.03;80.22;102474.84;5108959;28;20032;-72
2022/04/27 06:12:18;;;;;;;21.75;10.98;;;;;;;7.27;79.15;102476.34;5109700;28;20043;-72
2022/04/27 06:14:44;;;;;;;21.05;10.75;;;;;;;7.45;78.95;102482.69;5111106;28;20031;-72
2022/04/27 06:17:09;;;;;;;20.75;10.73;;;;;;;7.54;78.26;102475.69;5111056;28;20042;-71
2022/04/27 06:19:34;;;;;;;20.45;10.50;;;;;;;7.51;78.39;102468.84;5094219;28;20028;-72
2022/04/27 06:22:00;;;;;;;20.10;10.25;;;;;;;7.56;77.64;102479.06;5102353;28;20051;-72
2022/04/27 06:24:27;;;;;;;17.98;7.97;;;;;;;7.53;77.10;102476.69;5108985;28;20479;-71
2022/04/27 06:26:54;;;;;;;18.38;10.15;;;;;;;7.49;78.05;102486.72;5110449;28;20043;-72
2022/04/27 06:29:19;;;;;;;16.60;8.55;;;;;;;7.49;77.90;102488.53;5110668;28;20093;-72
2022/04/27 06:31:45;;;;;;;16.58;8.45;;;;;;;7.53;78.23;102497.94;5094392;28;20059;-72
2022/04/27 06:34:11;;;;;;;18.48;8.63;;;;;;;7.46;76.98;102493.13;5109579;28;20405;-72
2022/04/27 06:36:38;;;;;;;19.98;8.52;;;;;;;7.47;77.00;102505.47;5102950;28;20027;-74
2022/04/27 06:39:07;;;;;;;17.88;8.75;;;;;;;7.46;77.77;102492.31;5094601;28;20032;-72
2022/04/27 06:41:32;;;;;;;17.95;8.93;;;;;;;7.54;78.57;102504.91;5091062;28;20161;-72
2022/04/27 06:43:58;;;;;;;18.50;7.95;;;;;;;7.62;77.44;102505.06;5095070;28;20118;-72
2022/04/27 06:46:23;;;;;;;17.40;8.32;;;;;;;7.65;77.86;102494.16;5110385;28;20024;-72
2022/04/27 06:48:48;;;;;;;17.52;7.65;;;;;;;7.81;77.48;102506.94;5109108;28;20038;-72
2022/04/27 06:51:15;;;;;;;17.50;8.98;;;;;;;7.89;77.82;102505.25;5110054;28;20056;-72
2022/04/27 06:53:40;;;;;;;13.98;7.18;;;;;;;7.99;77.84;102507.94;5110234;28;20031;-72
2022/04/27 06:56:05;;;;;;;17.58;7.85;;;;;;;8.09;76.56;102514.06;5096763;28;20050;-72
2022/04/27 06:58:31;;;;;;;16.35;8.50;;;;;;;8.08;75.26;102515.06;5110124;28;20031;-72
2022/04/27 07:00:57;;;;;;;19.98;9.43;;;;;;;8.11;75.95;102511.28;5110166;28;20027;-72
2022/04/27 07:03:22;;;;;;;17.58;7.85;;;;;;;8.22;76.10;102521.75;5110123;28;20033;-72
2022/04/27 07:05:48;;;;;;;17.88;7.78;;;;;;;8.27;73.96;102522.19;5109928;28;21002;-72
2022/04/27 07:08:13;;;;;;;15.35;7.18;;;;;;;8.26;74.20;102509.88;5092008;28;20103;-72
2022/04/27 07:10:39;;;;;;;14.55;7.88;;;;;;;8.34;73.82;102506.53;5096077;28;20036;-72
2022/04/27 07:13:05;;;;;;;14.45;8.57;;;;;;;8.40;73.16;102516.63;5109199;28;20028;-72
2022/04/27 07:15:31;;;;;;;18.90;8.57;;;;;;;8.44;73.31;102520.69;5110039;28;20035;-72
2022/04/27 07:17:56;;;;;;;15.40;8.82;;;;;;;8.52;73.23;102514.66;5109890;28;20466;-72
2022/04/27 07:20:21;;;;;;;17.95;9.77;;;;;;;8.62;73.19;102510.16;5106473;28;20035;-71
2022/04/27 07:22:47;;;;;;;14.60;7.00;;;;;;;8.85;71.48;102523.97;5104552;27;20026;-77
2022/04/27 07:25:14;;;;;;;17.80;8.18;;;;;;;9.25;70.60;102527.34;5097718;27;20028;-78
2022/04/27 07:27:39;;;;;;;15.10;7.50;;;;;;;9.79;69.54;102529.16;5094772;28;20026;-76
2022/04/27 07:30:05;;;;;;;15.82;7.03;;;;;;;10.92;65.62;102532.97;5095259;28;20379;-76
2022/04/27 07:32:31;;;;;;;17.38;8.38;;;;;;;12.13;62.31;102523.91;5089949;28;20040;-72
2022/04/27 07:34:56;;;;;;;11.32;6.88;;;;;;;12.79;58.95;102530.13;5108911;28;20039;-74
2022/04/27 07:37:21;;;;;;;15.02;7.53;;;;;;;13.70;57.31;102540.38;5090782;28;20031;-72
2022/04/27 07:39:47;;;;;;;15.70;7.55;;;;;;;13.91;54.28;102534.38;5105605;28;20055;-73
2022/04/27 07:42:12;;;;;;;18.08;7.63;;;;;;;13.89;54.23;102523.00;5109435;28;20123;-73
2022/04/27 07:44:38;;;;;;;15.10;6.05;;;;;;;13.95;53.02;102516.91;5096610;28;20520;-73
2022/04/27 07:47:03;;;;;;;13.63;6.93;;;;;;;13.52;53.34;102534.44;5089905;28;20028;-73
2022/04/27 07:49:29;;;;;;;11.73;6.30;;;;;;;13.13;55.04;102536.06;5092394;28;20484;-73
2022/04/27 07:51:54;;;;;;;10.93;6.13;;;;;;;12.94;52.29;102534.59;5110645;28;20032;-73
2022/04/27 07:54:20;;;;;;;11.00;4.80;;;;;;;13.10;51.90;102544.44;5109223;28;20020;-73
2022/04/27 07:56:45;;;;;;;10.63;5.22;;;;;;;14.57;49.94;102534.75;5109293;28;20034;-73
2022/04/27 07:59:10;;;;;;;8.75;4.85;;;;;;;16.18;45.05;102541.19;5109258;28;20031;-73
2022/04/27 08:01:36;;;;;;;9.43;4.88;;;;;;;17.45;41.93;102538.38;5108956;28;20127;-73
2022/04/27 08:04:01;;;;;;;8.52;4.35;;;;;;;18.32;37.95;102538.63;5109040;28;20032;-73
2022/04/27 08:06:26;;;;;;;5.72;3.75;;;;;;;19.19;36.13;102540.19;5109203;28;20046;-73
2022/04/27 08:08:52;;;;;;;9.80;4.43;;;;;;;20.51;34.23;102548.66;5104702;28;20078;-73
2022/04/27 08:11:17;;;;;;;6.10;3.78;;;;;;;20.87;32.67;102541.66;5109179;28;20071;-73
2022/04/27 08:13:44;;;;;;;6.90;4.20;;;;;;;21.33;32.48;102551.19;5109165;28;20039;-73
2022/04/27 08:16:13;;;;;;;11.00;4.07;;;;;;;21.41;30.62;102559.06;5107797;28;20038;-73
2022/04/27 08:18:39;;;;;;;6.20;3.53;;;;;;;21.08;32.07;102559.38;5108932;28;20020;-73
2022/04/27 08:21:14;;;;;;;4.68;3.25;;;;;;;21.10;30.86;102560.00;5109159;28;20042;-74
2022/04/27 08:23:40;;;;;;;6.93;3.80;;;;;;;21.19;30.99;102557.81;5111469;28;20059;-73
2022/04/27 08:26:07;;;;;;;7.55;4.20;;;;;;;21.30;30.62;102556.22;5111706;28;20084;-73
2022/04/27 08:28:34;;;;;;;7.43;4.32;;;;;;;20.70;31.47;102554.97;5113117;28;20064;-73
2022/04/27 08:31:00;;;;;;;6.50;3.97;;;;;;;20.02;32.93;102561.09;5108020;28;20032;-73
2022/04/27 08:33:25;;;;;;;6.20;4.47;;;;;;;19.80;31.81;102562.47;5106787;28;20080;-73
2022/04/27 08:35:51;;;;;;;8.82;4.80;;;;;;;19.75;33.78;102562.28;5093825;28;20026;-73
2022/04/27 08:38:17;;;;;;;9.07;4.63;;;;;;;20.43;31.66;102543.50;5111598;28;20038;-73
2022/04/27 08:40:44;;;;;;;5.05;3.60;;;;;;;21.56;29.94;102557.81;5093496;28;20479;-73
2022/04/27 08:43:10;;;;;;;5.40;3.75;;;;;;;21.59;29.39;102560.09;5100090;28;20487;-73
2022/04/27 08:45:37;;;;;;;4.18;3.50;;;;;;;20.41;30.68;102561.03;5110892;28;20020;-73
2022/04/27 08:48:03;;;;;;;9.13;4.35;;;;;;;18.95;34.13;102565.25;5112869;28;20697;-73
2022/04/27 08:50:29;;;;;;;9.25;3.97;;;;;;;17.42;35.48;102571.16;5112560;28;20139;-73
2022/04/27 08:52:55;;;;;;;7.78;4.10;;;;;;;16.09;38.03;102575.50;5099813;28;20111;-73
2022/04/27 08:55:21;;;;;;;7.97;3.83;;;;;;;15.40;42.95;102575.84;5093254;28;20382;-73
2022/04/27 08:57:48;;;;;;;8.35;4.60;;;;;;;14.94;41.53;102564.47;5111133;28;20049;-73
2022/04/27 09:00:19;;;;;;;7.93;4.35;;;;;;;14.71;44.92;102578.75;5095878;28;20024;-73
2022/04/27 09:02:45;;;;;;;11.53;5.43;;;;;;;14.56;44.88;102564.47;5098834;28;20182;-73
2022/04/27 09:05:18;;;;;;;9.75;4.93;;;;;;;14.47;44.15;102577.09;5110355;28;20110;-73
2022/04/27 09:07:51;;;;;;;7.30;4.00;;;;;;;14.12;43.14;102574.00;5112295;28;20055;-73
2022/04/27 09:10:25;;;;;;;7.20;4.60;;;;;;;13.88;43.43;102558.03;5112221;28;20146;-73
2022/04/27 09:12:51;;;;;;;7.95;4.35;;;;;;;13.61;45.06;102580.81;5112353;27;20110;-73
2022/04/27 09:15:19;;;;;;;9.02;4.10;;;;;;;13.30;45.75;102571.69;5112320;28;20027;-73
2022/04/27 09:23:26;;;;;;;8.95;4.90;;;;;;;13.20;45.54;102573.69;5112301;28;20511;-73
2022/04/27 09:25:55;;;;;;;8.73;4.43;;;;;;;13.25;46.14;102571.34;5111952;28;20040;-73
2022/04/27 09:28:26;;;;;;;9.00;4.70;;;;;;;13.11;45.20;102564.84;5099454;28;20070;-73
2022/04/27 09:30:52;;;;;;;9.45;4.53;;;;;;;13.07;46.08;102571.56;5111592;28;20032;-73
2022/04/27 09:33:32;;;;;;;7.60;4.53;;;;;;;13.09;47.27;102566.03;5111630;27;20032;-73
2022/04/27 09:35:58;;;;;;;8.48;4.70;;;;;;;13.28;46.19;102562.16;5110723;28;20535;-73
2022/04/27 09:38:24;;;;;;;9.90;5.18;;;;;;;13.44;46.71;102562.09;5111696;28;20039;-73
2022/04/27 09:40:54;;;;;;;10.18;4.85;;;;;;;13.65;47.10;102566.88;5092445;28;20091;-73
2022/04/27 09:43:43;;;;;;;8.13;4.53;;;;;;;13.74;46.01;102573.03;5111171;28;20080;-73
2022/04/27 09:46:25;;;;;;;8.10;4.55;;;;;;;13.64;45.62;102573.22;5112108;28;20120;-74
2022/04/27 09:49:14;;;;;;;12.43;4.75;;;;;;;13.44;46.46;102574.66;5103703;28;20028;-73
2022/04/27 09:51:50;;;;;;;8.07;4.47;;;;;;;13.16;46.53;102573.22;5091197;28;20051;-73
2022/04/27 09:54:19;;;;;;;8.05;4.50;;;;;;;13.19;45.89;102565.84;5111473;28;20035;-73
2022/04/27 09:56:50;;;;;;;11.98;6.07;;;;;;;13.29;46.89;102564.66;5111509;28;20034;-73
2022/04/27 09:59:16;;;;;;;11.37;5.40;;;;;;;13.36;47.10;102570.16;5111376;28;20051;-73
2022/04/27 10:01:43;;;;;;;10.63;5.13;;;;;;;13.35;45.71;102574.69;5108717;28;20358;-73
2022/04/27 10:04:10;;;;;;;7.57;4.22;;;;;;;13.26;48.65;102578.41;5104190;28;20073;-73
2022/04/27 10:06:36;;;;;;;12.88;5.13;;;;;;;13.13;49.01;102573.56;5098078;27;20023;-74
2022/04/27 10:09:04;;;;;;;9.73;6.45;;;;;;;13.13;50.68;102572.72;5092116;28;20234;-75
2022/04/27 10:11:33;;;;;;;11.18;5.20;;;;;;;13.39;47.61;102559.13;5095784;27;20393;-74
2022/04/27 10:14:00;;;;;;;11.95;5.70;;;;;;;13.68;45.29;102558.47;5095903;28;20029;-74
2022/04/27 10:16:27;;;;;;;12.40;6.63;;;;;;;13.77;44.73;102568.13;5094396;28;20093;-73
2022/04/27 10:18:53;;;;;;;11.57;5.65;;;;;;;13.92;51.01;102551.31;5095916;27;20012;-74
2022/04/27 10:21:56;;;;;;;13.90;5.90;;;;;;;14.06;46.11;102555.06;5095540;28;20027;-74
2022/04/27 10:24:34;;;;;;;9.07;5.47;;;;;;;14.16;45.42;102559.19;5097595;28;20456;-71
2022/04/27 10:27:39;;;;;;;10.25;6.03;;;;;;;14.06;44.73;102563.13;5095119;28;21057;-71
2022/04/27 10:30:07;;;;;;;8.88;5.35;;;;;;;13.90;43.96;102556.84;5084557;28;20060;-73
2022/04/27 10:32:42;;;;;;;11.52;5.97;;;;;;;13.95;43.96;102559.84;5095594;28;20110;-74
2022/04/27 10:35:19;;;;;;;10.70;5.93;;;;;;;13.96;45.15;102549.94;5097123;27;20089;-76
2022/04/27 10:37:49;;;;;;;13.73;5.20;;;;;;;14.02;44.31;102560.81;5091112;28;20064;-74
2022/04/27 10:40:37;;;;;;;11.23;6.03;;;;;;;13.96;45.96;102556.16;5103013;28;20093;-75
2022/04/27 10:43:06;;;;;;;7.57;5.00;;;;;;;14.03;44.56;102559.78;5100603;28;20123;-75
2022/04/27 10:45:33;;;;;;;9.85;5.25;;;;;;;14.27;46.76;102549.88;5108753;28;20063;-74
2022/04/27 10:48:03;;;;;;;12.30;5.57;;;;;;;14.36;43.28;102559.56;5110285;28;20027;-74
2022/04/27 10:50:31;;;;;;;9.88;6.28;;;;;;;14.29;44.89;102558.59;5104853;28;20123;-74
2022/04/27 10:53:13;;;;;;;13.85;6.30;;;;;;;14.36;45.05;102548.81;5108063;28;20635;-74
2022/04/27 10:55:42;;;;;;;;;;;;;;;14.66;45.93;102548.94;5110652;28;20093;-74
2022/04/27 10:58:12;;;;;;;13.50;6.03;;;;;;;15.00;45.33;102550.28;5109963;28;19911;-74
2022/04/27 11:01:02;;;;;;;13.07;5.95;;;;;;;15.37;45.68;102557.41;5109912;28;20040;-74
2022/04/27 11:03:32;;;;;;;13.25;6.07;;;;;;;15.48;43.39;102546.19;5109909;28;20034;-74
2022/04/27 11:06:06;;;;;;;13.10;6.03;;;;;;;15.59;43.77;102555.63;5108657;28;20042;-74
2022/04/27 11:09:15;;;;;;;12.15;5.57;;;;;;;15.14;43.47;102549.44;5122066;27;20072;-75
2022/04/27 11:11:51;;;;;;;10.93;5.88;;;;;;;14.81;42.77;102547.09;5100361;28;20024;-73
2022/04/27 11:14:19;;;;;;;10.15;5.90;;;;;;;14.31;42.70;102550.38;5102544;28;20028;-74
2022/04/27 11:16:48;;;;;;;10.68;5.75;;;;;;;13.88;44.01;102544.63;5109525;28;20058;-73
2022/04/27 11:19:15;;;;;;;12.00;6.15;;;;;;;13.58;44.48;102547.13;5109524;28;20032;-74
2022/04/27 11:21:40;;;;;;;10.70;5.43;;;;;;;13.54;45.19;102543.13;5109482;28;20024;-74
2022/04/27 11:24:07;;;;;;;12.73;7.03;;;;;;;13.69;44.94;102546.72;5109407;28;20391;-74
2022/04/27 11:26:46;;;;;;;15.65;6.78;;;;;;;14.18;45.56;102543.75;5107923;28;20023;-73
2022/04/27 11:29:13;;;;;;;11.77;6.97;;;;;;;14.64;45.49;102546.41;5094704;28;20937;-71
2022/04/27 11:31:39;;;;;;;13.82;7.93;;;;;;;14.90;43.76;102540.63;5095440;27;20036;-74
2022/04/27 11:34:26;;;;;;;13.10;6.63;;;;;;;15.21;48.43;102536.09;5096910;27;20022;-73
2022/04/27 11:36:53;;;;;;;11.50;6.45;;;;;;;15.50;45.23;102540.63;5104919;28;20034;-73
2022/04/27 11:39:23;;;;;;;10.73;5.55;;;;;;;15.79;41.77;102545.13;5097445;28;20028;-72